createdAt,value
2023-03-21T00:00:34.239Z,5.50
2023-03-21T00:03:38.136Z,5.30
2023-03-21T00:06:41.047Z,5.33
2023-03-21T00:09:43.895Z,5.20
2023-03-21T00:12:50.466Z,4.85
2023-03-21T00:16:16.549Z,5.00
2023-03-21T00:19:19.408Z,4.97
2023-03-21T00:22:22.036Z,4.70
2023-03-21T00:25:24.735Z,4.75
2023-03-21T00:28:28.217Z,5.35
2023-03-21T00:31:31.509Z,5.40
2023-03-21T00:34:43.415Z,5.40
2023-03-21T00:37:57.169Z,5.30
2023-03-21T00:53:56.294Z,5.22
2023-03-21T00:57:04.161Z,4.82
2023-03-21T01:00:10.781Z,5.03
2023-03-21T01:03:24.456Z,4.85
2023-03-21T01:06:27.800Z,5.20
2023-03-21T01:09:30.598Z,5.53
2023-03-21T01:12:33.749Z,4.82
2023-03-21T01:15:48.520Z,4.50
2023-03-21T01:18:51.377Z,5.05
2023-03-21T01:22:00.563Z,4.63
2023-03-21T01:25:21.258Z,4.43
2023-03-21T01:28:29.240Z,5.40
2023-03-21T01:31:31.986Z,4.70
2023-03-21T01:34:34.661Z,4.95
2023-03-21T01:37:37.329Z,5.07
2023-03-21T01:40:41.090Z,4.90
2023-03-21T01:43:53.248Z,4.60
2023-03-21T01:47:11.900Z,5.03
2023-03-21T01:50:42.265Z,4.40
2023-03-21T01:54:15.024Z,5.35
2023-03-21T01:57:40.961Z,5.03
2023-03-21T02:00:47.393Z,4.50
2023-03-21T02:04:04.061Z,4.70
2023-03-21T02:07:31.731Z,4.38
2023-03-21T02:10:40.933Z,4.97
2023-03-21T02:13:45.461Z,4.97
2023-03-21T02:17:00.690Z,4.63
2023-03-21T02:20:22.385Z,4.47
2023-03-21T02:23:51.395Z,4.20
2023-03-21T02:27:04.813Z,4.75
2023-03-21T02:30:45.520Z,5.15
2023-03-21T02:34:01.022Z,5.35
2023-03-21T02:37:13.876Z,4.43
2023-03-21T02:40:47.134Z,4.40
2023-03-21T02:43:59.069Z,4.45
2023-03-21T02:47:08.301Z,4.28
2023-03-21T02:50:45.851Z,4.65
2023-03-21T02:54:19.971Z,4.57
2023-03-21T02:57:20.457Z,4.60
2023-03-21T03:00:28.122Z,4.88
2023-03-21T03:03:34.720Z,4.50
2023-03-21T03:07:10.272Z,4.80
2023-03-21T03:10:30.005Z,4.40
2023-03-21T03:13:52.011Z,4.38
2023-03-21T03:17:10.349Z,4.55
2023-03-21T03:20:25.876Z,4.70
2023-03-21T03:23:39.188Z,4.85
2023-03-21T03:26:51.385Z,4.87
2023-03-21T03:29:57.715Z,4.57
2023-03-21T03:33:07.954Z,4.88
2023-03-21T03:36:30.407Z,4.65
2023-03-21T03:39:57.011Z,4.82
2023-03-21T03:43:06.345Z,4.77
2023-03-21T03:46:24.420Z,4.22
2023-03-21T03:49:33.613Z,5.07
2023-03-21T03:52:55.840Z,4.13
2023-03-21T03:56:01.670Z,4.07
2023-03-21T03:59:07.556Z,4.13
2023-03-21T04:02:33.829Z,4.38
2023-03-21T04:05:39.036Z,4.40
2023-03-21T04:08:42.722Z,4.85
2023-03-21T04:11:45.551Z,4.00
2023-03-21T04:14:48.280Z,4.27
2023-03-21T04:17:54.199Z,4.35
2023-03-21T04:20:57.421Z,4.00
2023-03-21T04:24:04.022Z,4.13
2023-03-21T04:27:06.843Z,4.22
2023-03-21T04:30:17.575Z,4.27
2023-03-21T04:33:30.571Z,4.13
2023-03-21T04:36:39.424Z,4.57
2023-03-21T04:39:46.477Z,4.50
2023-03-21T04:42:49.744Z,4.57
2023-03-21T04:45:52.648Z,4.00
2023-03-21T04:48:55.789Z,4.55
2023-03-21T04:51:58.962Z,4.32
2023-03-21T04:55:03.460Z,4.32
2023-03-21T04:58:06.531Z,4.35
2023-03-21T05:01:09.596Z,4.00
2023-03-21T05:04:14.616Z,3.55
2023-03-21T05:07:17.468Z,3.95
2023-03-21T05:10:20.573Z,4.28
2023-03-21T05:13:23.865Z,4.43
2023-03-21T05:16:30.805Z,4.40
2023-03-21T05:19:40.787Z,4.47
2023-03-21T05:22:46.295Z,4.18
2023-03-21T05:25:51.077Z,4.18
2023-03-21T05:29:15.909Z,4.10
2023-03-21T05:32:21.488Z,4.30
2023-03-21T05:35:26.769Z,3.75
2023-03-21T05:38:31.712Z,4.22
2023-03-21T05:41:35.143Z,5.10
2023-03-21T05:44:40.831Z,4.22
2023-03-21T05:47:48.326Z,4.20
2023-03-21T05:50:54.232Z,4.00
2023-03-21T05:53:58.609Z,4.22
2023-03-21T05:57:02.552Z,3.83
2023-03-21T06:00:24.703Z,3.90
2023-03-21T06:03:44.739Z,4.23
2023-03-21T06:06:58.856Z,4.10
2023-03-21T06:10:01.855Z,4.40
2023-03-21T06:13:05.138Z,4.45
2023-03-21T06:16:10.929Z,4.43
2023-03-21T06:19:14.732Z,3.90
2023-03-21T06:22:52.673Z,4.20
2023-03-21T06:25:55.451Z,4.43
2023-03-21T06:29:00.497Z,4.22
2023-03-21T06:32:03.902Z,4.75
2023-03-21T06:35:07.588Z,4.03
2023-03-21T06:38:11.221Z,3.72
2023-03-21T06:41:16.366Z,4.68
2023-03-21T06:44:26.774Z,4.47
2023-03-21T06:47:35.700Z,3.67
2023-03-21T06:50:42.769Z,4.10
2023-03-21T06:53:45.832Z,3.60
2023-03-21T06:57:00.466Z,4.25
2023-03-21T07:00:09.182Z,4.22
2023-03-21T07:03:20.270Z,4.35
2023-03-21T07:06:26.736Z,3.93
2023-03-21T07:09:30.673Z,4.20
2023-03-21T07:12:39.066Z,4.28
2023-03-21T07:16:09.160Z,4.35
2023-03-21T07:19:12.563Z,4.30
2023-03-21T07:22:16.122Z,4.13
2023-03-21T07:25:20.473Z,3.95
2023-03-21T07:28:24.794Z,4.47
2023-03-21T07:31:27.847Z,4.25
2023-03-21T07:34:33.780Z,4.20
2023-03-21T07:37:40.052Z,4.47
2023-03-21T07:40:43.642Z,4.32
2023-03-21T07:43:46.522Z,3.97
2023-03-21T07:46:49.638Z,4.20
2023-03-21T07:49:52.776Z,4.50
2023-03-21T07:52:55.732Z,3.53
2023-03-21T07:55:59.151Z,3.83
2023-03-21T07:59:02.014Z,4.00
2023-03-21T08:02:11.540Z,3.83
2023-03-21T08:05:14.691Z,4.32
2023-03-21T08:08:17.571Z,4.20
2023-03-21T08:11:22.254Z,4.25
2023-03-21T08:14:25.080Z,4.45
2023-03-21T08:17:27.858Z,3.78
2023-03-21T08:20:31.098Z,3.85
2023-03-21T08:23:33.770Z,3.47
2023-03-21T08:26:36.452Z,3.63
2023-03-21T08:29:42.410Z,3.95
2023-03-21T08:32:45.453Z,3.75
2023-03-21T08:35:48.221Z,3.67
2023-03-21T08:38:54.698Z,4.10
2023-03-21T08:41:57.560Z,3.97
2023-03-21T08:45:00.446Z,4.07
2023-03-21T08:48:03.401Z,3.53
2023-03-21T08:51:06.560Z,3.95
2023-03-21T08:54:18.715Z,4.50
2023-03-21T08:57:21.683Z,3.72
2023-03-21T09:00:25.258Z,3.90
2023-03-21T09:03:28.051Z,3.90
2023-03-21T09:06:30.912Z,3.78
2023-03-21T09:09:33.628Z,4.07
2023-03-21T09:12:39.581Z,3.40
2023-03-21T09:15:42.897Z,3.60
2023-03-21T09:18:47.362Z,3.47
2023-03-21T09:21:50.880Z,3.80
2023-03-21T09:24:54.283Z,3.30
2023-03-21T09:27:58.294Z,4.03
2023-03-21T09:31:02.860Z,3.45
2023-03-21T09:34:06.071Z,4.03
2023-03-21T09:37:13.933Z,3.75
2023-03-21T09:40:25.926Z,3.70
2023-03-21T09:43:44.153Z,3.60
2023-03-21T09:47:11.161Z,3.65
2023-03-21T09:50:27.934Z,3.40
2023-03-21T09:53:39.083Z,3.38
2023-03-21T09:56:44.830Z,3.37
2023-03-21T09:59:50.763Z,3.30
2023-03-21T10:06:28.961Z,3.67
2023-03-21T10:09:32.911Z,3.80
2023-03-21T10:12:35.833Z,3.30
2023-03-21T10:15:38.749Z,3.38
2023-03-21T10:18:44.649Z,3.35
2023-03-21T10:22:01.409Z,3.40
2023-03-21T10:25:07.341Z,3.33
2023-03-21T10:28:17.887Z,3.40
2023-03-21T10:31:26.427Z,3.00
2023-03-21T10:34:43.495Z,3.50
2023-03-21T10:37:51.071Z,3.45
2023-03-21T10:40:55.045Z,3.83
2023-03-21T10:44:16.826Z,3.03
2023-03-21T10:47:22.547Z,2.90
2023-03-21T10:50:30.460Z,3.10
2023-03-21T10:53:46.347Z,3.58
2023-03-21T10:57:02.630Z,3.63
2023-03-21T11:00:17.314Z,2.83
2023-03-21T11:03:49.806Z,3.05
2023-03-21T11:06:58.286Z,2.88
2023-03-21T11:10:14.594Z,3.50
2023-03-21T11:13:26.368Z,3.20
2023-03-21T11:16:44.729Z,2.53
2023-03-21T11:19:57.918Z,2.90
2023-03-21T11:23:03.642Z,2.78
2023-03-21T11:26:12.041Z,2.67
2023-03-21T11:29:23.770Z,2.55
2023-03-21T11:32:31.440Z,2.40
2023-03-21T11:35:37.655Z,2.47
2023-03-21T11:38:40.708Z,2.83
2023-03-21T11:41:48.279Z,2.53
2023-03-21T11:45:00.709Z,2.13
2023-03-21T11:48:14.831Z,2.57
2023-03-21T11:51:20.455Z,1.75
2023-03-21T11:54:45.670Z,2.03
2023-03-21T11:58:18.486Z,1.98
2023-03-21T12:01:38.348Z,2.15
2023-03-21T12:04:47.233Z,2.00
2023-03-21T12:08:09.177Z,1.52
2023-03-21T12:11:21.054Z,1.95
2023-03-21T12:14:45.940Z,1.55
2023-03-21T12:18:16.943Z,2.03
2023-03-21T12:21:39.327Z,1.90
2023-03-21T12:24:56.957Z,1.80
2023-03-21T12:28:07.555Z,1.88
2023-03-21T12:31:16.553Z,1.80
2023-03-21T12:34:36.072Z,1.88
2023-03-21T12:37:54.590Z,2.07
2023-03-21T12:41:17.506Z,1.85
2023-03-21T12:44:26.554Z,2.00
2023-03-21T12:47:32.892Z,1.60
2023-03-21T12:50:38.866Z,2.00
2023-03-21T12:54:04.646Z,1.60
2023-03-21T12:57:14.998Z,1.75
2023-03-21T13:00:32.219Z,2.22
2023-03-21T13:03:44.080Z,2.13
2023-03-21T13:06:49.185Z,2.72
2023-03-21T13:09:55.386Z,2.27
2023-03-21T13:13:27.887Z,2.50
2023-03-21T13:16:56.307Z,2.53
2023-03-21T13:20:22.951Z,2.38
2023-03-21T13:23:34.754Z,2.20
2023-03-21T13:26:43.454Z,2.20
2023-03-21T13:29:58.640Z,2.58
2023-03-21T13:33:07.257Z,2.33
2023-03-21T13:36:14.583Z,1.80
2023-03-21T13:39:27.784Z,2.40
2023-03-21T13:42:34.017Z,2.33
2023-03-21T13:45:52.280Z,2.30
2023-03-21T13:49:16.792Z,2.35
2023-03-21T13:52:28.343Z,2.20
2023-03-21T13:55:41.635Z,2.67
2023-03-21T13:58:44.488Z,1.80
2023-03-21T14:02:11.972Z,2.38
2023-03-21T14:05:23.341Z,1.70
2023-03-21T14:08:37.075Z,2.00
2023-03-21T14:11:46.491Z,2.22
2023-03-21T14:15:15.904Z,1.60
2023-03-21T14:18:35.385Z,1.63
2023-03-21T14:21:51.691Z,1.67
2023-03-21T14:25:01.981Z,1.58
2023-03-21T14:28:13.721Z,1.95
2023-03-21T14:31:18.631Z,1.50
2023-03-21T14:34:22.315Z,1.70
2023-03-21T14:37:41.784Z,1.77
2023-03-21T14:40:49.742Z,1.90
2023-03-21T14:44:03.368Z,1.83
2023-03-21T14:47:19.451Z,1.50
2023-03-21T14:50:54.091Z,1.90
2023-03-21T14:53:57.742Z,1.90
2023-03-21T14:57:03.780Z,2.40
2023-03-21T15:00:14.957Z,2.30
2023-03-21T15:03:39.235Z,2.00
2023-03-21T15:07:01.827Z,2.20
2023-03-21T15:10:16.654Z,2.05
2023-03-21T15:13:22.709Z,2.17
2023-03-21T15:16:25.699Z,1.70
2023-03-21T15:19:32.793Z,2.00
2023-03-21T15:22:41.767Z,2.00
2023-03-21T15:25:45.529Z,1.73
2023-03-21T15:28:50.665Z,1.90
2023-03-21T15:31:53.752Z,1.63
2023-03-21T15:35:08.687Z,1.57
2023-03-21T15:38:37.426Z,1.67
2023-03-21T15:41:43.110Z,1.58
2023-03-21T15:44:49.848Z,1.90
2023-03-21T15:47:55.802Z,2.10
2023-03-21T15:51:03.397Z,1.40
2023-03-21T15:54:15.892Z,1.60
2023-03-21T15:57:24.790Z,2.05
2023-03-21T16:00:36.449Z,1.70
2023-03-21T16:03:45.983Z,1.90
2023-03-21T16:07:16.208Z,1.67
2023-03-21T16:10:37.574Z,2.03
2023-03-21T16:13:40.861Z,1.60
2023-03-21T16:16:46.230Z,1.90
2023-03-21T16:19:49.299Z,1.80
2023-03-21T16:22:52.444Z,1.70
2023-03-21T16:25:58.680Z,2.05
2023-03-21T16:29:01.948Z,1.77
2023-03-21T16:32:06.960Z,1.90
2023-03-21T16:35:10.134Z,1.90
2023-03-21T16:38:13.787Z,2.03
2023-03-21T16:41:17.283Z,1.75
2023-03-21T16:44:22.793Z,1.90
2023-03-21T16:47:25.990Z,1.38
2023-03-21T16:50:39.824Z,1.60
2023-03-21T16:53:44.215Z,1.87
2023-03-21T16:56:55.084Z,1.48
2023-03-21T16:59:58.274Z,1.73
2023-03-21T17:03:06.610Z,1.70
2023-03-21T17:06:21.735Z,1.80
2023-03-21T17:09:28.072Z,1.77
2023-03-21T17:12:31.413Z,1.90
2023-03-21T17:15:34.483Z,1.80
2023-03-21T17:18:37.677Z,1.73
2023-03-21T17:21:41.080Z,2.03
2023-03-21T17:24:43.973Z,1.80
2023-03-21T17:27:47.631Z,1.58
2023-03-21T17:30:51.563Z,1.80
2023-03-21T17:33:54.665Z,1.80
2023-03-21T17:36:57.375Z,2.10
2023-03-21T17:40:00.120Z,1.90
2023-03-21T17:43:03.353Z,1.75
2023-03-21T17:46:07.222Z,1.90
2023-03-21T17:49:13.857Z,2.10
2023-03-21T17:52:17.084Z,1.92
2023-03-21T17:55:21.379Z,1.87
2023-03-21T17:58:26.431Z,2.08
2023-03-21T18:01:31.990Z,2.22
2023-03-21T18:04:37.181Z,2.00
2023-03-21T18:11:07.713Z,2.20
2023-03-21T18:14:17.179Z,2.03
2023-03-21T18:17:22.937Z,2.47
2023-03-21T18:20:50.391Z,2.40
2023-03-21T18:23:54.774Z,2.55
2023-03-21T18:26:58.736Z,2.17
2023-03-21T18:33:27.801Z,2.25
2023-03-21T18:36:33.089Z,2.20
2023-03-21T18:39:40.153Z,2.47
2023-03-21T18:43:27.367Z,2.70
2023-03-21T18:46:08.839Z,2.70
2023-03-21T18:49:58.992Z,2.45
2023-03-21T18:52:37.083Z,2.47
2023-03-21T18:55:46.640Z,2.53
2023-03-21T18:58:51.681Z,2.40
2023-03-21T19:01:57.289Z,3.00
2023-03-21T19:05:01.906Z,2.70
2023-03-21T19:08:06.876Z,2.10
2023-03-21T19:11:13.424Z,2.47
2023-03-21T19:14:18.396Z,2.43
2023-03-21T19:20:47.899Z,2.80
2023-03-21T19:27:17.506Z,2.50
2023-03-21T19:30:21.595Z,2.97
2023-03-21T19:33:27.674Z,2.72
2023-03-21T19:36:34.709Z,3.08
2023-03-21T19:39:40.527Z,2.70
2023-03-21T19:42:44.683Z,2.80
2023-03-21T19:45:48.783Z,2.67
2023-03-21T19:48:56.393Z,2.72
2023-03-21T19:52:00.854Z,2.72
2023-03-21T19:55:06.134Z,2.95
2023-03-21T19:58:11.550Z,2.65
2023-03-21T20:01:15.142Z,2.53
2023-03-21T20:04:20.313Z,3.33
2023-03-21T20:07:24.367Z,2.42
2023-03-21T20:10:28.352Z,2.35
2023-03-21T20:13:33.502Z,2.60
2023-03-21T20:16:38.237Z,2.63
2023-03-21T20:19:42.041Z,3.20
2023-03-21T20:26:13.569Z,3.05
2023-03-21T20:32:44.991Z,2.70
2023-03-21T20:39:19.137Z,2.78
2023-03-21T20:42:24.252Z,3.00
2023-03-21T20:45:29.555Z,2.92
2023-03-21T20:48:35.868Z,3.03
2023-03-21T20:55:10.301Z,3.40
2023-03-21T20:58:36.790Z,2.63
2023-03-21T21:01:40.105Z,3.25
2023-03-21T21:05:03.567Z,2.73
2023-03-21T21:08:07.570Z,2.67
2023-03-21T21:14:38.467Z,3.10
2023-03-21T21:21:06.199Z,2.60
2023-03-21T21:24:09.393Z,2.83
2023-03-21T21:27:12.416Z,3.20
2023-03-21T21:30:16.800Z,3.17
2023-03-21T21:33:21.337Z,2.72
2023-03-21T21:36:24.048Z,2.77
2023-03-21T21:39:27.708Z,2.65
2023-03-21T21:42:30.503Z,3.05
2023-03-21T21:45:33.666Z,2.78
2023-03-21T21:48:36.930Z,2.88
2023-03-21T21:51:41.963Z,2.80
2023-03-21T21:54:45.913Z,2.65
2023-03-21T21:57:50.791Z,3.22
2023-03-21T22:00:54.509Z,2.97
2023-03-21T22:04:06.187Z,3.33
2023-03-21T22:07:14.727Z,2.80
2023-03-21T22:10:19.128Z,2.47
2023-03-21T22:13:22.020Z,2.90
2023-03-21T22:16:24.970Z,3.20
2023-03-21T22:19:27.809Z,3.05
2023-03-21T22:22:30.826Z,2.80
2023-03-21T22:25:33.508Z,2.60
2023-03-21T22:28:39.735Z,2.63
2023-03-21T22:31:44.301Z,2.55
2023-03-21T22:34:47.227Z,3.15
2023-03-21T22:37:50.010Z,2.70
2023-03-21T22:41:01.849Z,2.63
2023-03-21T22:44:04.670Z,2.90
2023-03-21T22:47:09.826Z,2.65
2023-03-21T22:50:12.641Z,2.78
2023-03-21T22:53:15.631Z,3.00
2023-03-21T22:56:18.921Z,2.90
2023-03-21T22:59:21.681Z,3.22
2023-03-21T23:02:24.530Z,3.17
2023-03-21T23:05:28.456Z,2.97
2023-03-21T23:08:31.249Z,3.10
2023-03-21T23:11:34.038Z,2.72
2023-03-21T23:14:36.920Z,2.80
2023-03-21T23:17:39.816Z,3.15
2023-03-21T23:20:42.875Z,3.20
2023-03-21T23:23:49.987Z,3.03
2023-03-21T23:26:53.056Z,3.22
2023-03-21T23:29:57.031Z,3.28
2023-03-21T23:33:09.551Z,3.53
2023-03-21T23:36:31.053Z,3.10
2023-03-21T23:39:34.577Z,3.00
2023-03-21T23:42:37.434Z,3.33
2023-03-21T23:45:41.199Z,3.38
2023-03-21T23:48:44.937Z,3.08
2023-03-21T23:51:47.641Z,3.00
2023-03-21T23:54:50.726Z,3.17
2023-03-21T23:57:59.185Z,3.15
